createdAt,value
2018-12-03T00:00:31.520Z,33.83
2018-12-03T00:03:04.066Z,29.47
2018-12-03T00:05:32.433Z,30.13
2018-12-03T00:08:00.843Z,25.63
2018-12-03T00:10:29.207Z,22.00
2018-12-03T00:12:57.612Z,25.03
2018-12-03T00:15:25.959Z,22.43
2018-12-03T00:17:54.372Z,16.20
2018-12-03T00:20:22.741Z,21.00
2018-12-03T00:22:51.112Z,17.33
2018-12-03T00:25:19.500Z,20.13
2018-12-03T00:27:52.446Z,22.23
2018-12-03T00:30:21.288Z,18.53
2018-12-03T00:32:50.080Z,16.83
2018-12-03T00:35:18.531Z,18.90
2018-12-03T00:37:46.940Z,21.80
2018-12-03T00:40:15.386Z,21.73
2018-12-03T00:42:43.797Z,19.40
2018-12-03T00:45:12.250Z,18.80
2018-12-03T00:47:40.643Z,22.67
2018-12-03T00:50:09.044Z,29.43
2018-12-03T00:52:37.499Z,21.17
2018-12-03T00:55:07.353Z,30.83
2018-12-03T00:57:35.801Z,27.60
2018-12-03T01:00:06.344Z,25.57
2018-12-03T01:02:34.708Z,24.37
2018-12-03T01:05:03.104Z,24.30
2018-12-03T01:07:31.569Z,26.53
2018-12-03T01:09:59.962Z,28.17
2018-12-03T01:12:28.332Z,31.63
2018-12-03T01:14:56.727Z,24.87
2018-12-03T01:17:25.087Z,20.27
2018-12-03T01:19:53.510Z,36.33
2018-12-03T01:22:21.953Z,32.30
2018-12-03T01:24:50.353Z,33.33
2018-12-03T01:27:18.818Z,29.43
2018-12-03T01:29:47.221Z,28.53
2018-12-03T01:32:15.668Z,33.37
2018-12-03T01:34:44.079Z,34.13
2018-12-03T01:37:12.441Z,33.53
2018-12-03T01:39:40.837Z,35.50
2018-12-03T01:42:09.184Z,34.77
2018-12-03T01:44:37.580Z,27.93
2018-12-03T01:47:05.560Z,27.87
2018-12-03T01:49:33.935Z,34.20
2018-12-03T01:52:02.300Z,32.67
2018-12-03T01:54:30.688Z,29.33
2018-12-03T01:56:59.052Z,34.80
2018-12-03T01:59:27.455Z,28.37
2018-12-03T02:01:55.844Z,26.33
2018-12-03T02:04:24.205Z,28.23
2018-12-03T02:06:52.591Z,27.03
2018-12-03T02:09:20.968Z,30.40
2018-12-03T02:11:49.356Z,36.43
2018-12-03T02:14:17.716Z,28.00
2018-12-03T02:16:46.088Z,26.70
2018-12-03T02:19:14.641Z,27.53
2018-12-03T02:21:43.021Z,27.77
2018-12-03T02:24:11.435Z,39.30
2018-12-03T02:26:39.814Z,32.00
2018-12-03T02:29:08.197Z,25.87
2018-12-03T02:31:36.591Z,25.87
2018-12-03T02:34:04.981Z,26.30
2018-12-03T02:36:33.360Z,26.97
2018-12-03T02:39:01.727Z,22.80
2018-12-03T02:41:30.108Z,26.87
2018-12-03T02:43:58.464Z,25.47
2018-12-03T02:46:26.855Z,25.27
2018-12-03T02:48:55.231Z,27.67
2018-12-03T02:51:23.641Z,21.60
2018-12-03T02:53:52.013Z,24.77
2018-12-03T02:56:20.494Z,28.30
2018-12-03T02:58:48.983Z,23.50
2018-12-03T03:01:17.370Z,29.77
2018-12-03T03:03:45.737Z,35.87
2018-12-03T03:06:14.095Z,27.90
2018-12-03T03:08:42.492Z,30.30
2018-12-03T03:11:10.861Z,26.50
2018-12-03T03:13:39.260Z,20.07
2018-12-03T03:16:07.711Z,20.67
2018-12-03T03:18:36.121Z,30.00
2018-12-03T03:21:04.511Z,28.30
2018-12-03T03:23:32.972Z,26.33
2018-12-03T03:26:01.346Z,20.57
2018-12-03T03:28:29.739Z,24.17
2018-12-03T03:30:58.206Z,18.93
2018-12-03T03:33:26.607Z,18.57
2018-12-03T03:35:54.961Z,26.80
2018-12-03T03:38:23.360Z,16.00
2018-12-03T03:40:51.721Z,20.70
2018-12-03T03:43:20.106Z,25.77
2018-12-03T03:45:48.473Z,24.07
2018-12-03T03:48:16.849Z,28.00
2018-12-03T03:50:45.214Z,24.30
2018-12-03T03:53:13.584Z,25.47
2018-12-03T03:55:41.939Z,21.97
2018-12-03T03:58:10.415Z,22.20
2018-12-03T04:00:38.864Z,24.37
2018-12-03T04:03:07.262Z,21.23
2018-12-03T04:05:35.612Z,17.77
2018-12-03T04:08:03.993Z,18.50
2018-12-03T04:10:32.385Z,17.70
2018-12-03T04:13:00.774Z,22.33
2018-12-03T04:15:29.132Z,15.77
2018-12-03T04:17:57.561Z,18.70
2018-12-03T04:20:25.993Z,18.77
2018-12-03T04:22:55.307Z,20.50
2018-12-03T04:25:23.663Z,19.63
2018-12-03T04:27:52.093Z,17.17
2018-12-03T04:30:22.259Z,24.53
2018-12-03T04:32:51.704Z,21.93
2018-12-03T04:35:20.111Z,20.60
2018-12-03T04:37:48.545Z,21.57
2018-12-03T04:40:17.467Z,21.93
2018-12-03T04:42:45.824Z,25.00
2018-12-03T04:45:16.365Z,23.20
2018-12-03T04:47:44.938Z,24.03
2018-12-03T04:50:17.528Z,19.50
2018-12-03T04:52:45.890Z,27.67
2018-12-03T04:55:15.718Z,26.13
2018-12-03T04:57:44.089Z,25.57
2018-12-03T05:00:16.265Z,31.00
2018-12-03T05:02:45.653Z,26.93
2018-12-03T05:05:14.060Z,28.80
2018-12-03T05:07:42.424Z,32.30
2018-12-03T05:10:12.120Z,32.87
2018-12-03T05:12:41.161Z,28.30
2018-12-03T05:15:10.665Z,36.53
2018-12-03T05:17:39.416Z,29.47
2018-12-03T05:20:10.185Z,24.03
2018-12-03T05:22:38.916Z,32.37
2018-12-03T05:25:08.979Z,42.07
2018-12-03T05:27:37.345Z,33.80
2018-12-03T05:30:09.211Z,20.93
2018-12-03T05:32:37.769Z,32.07
2018-12-03T05:35:08.517Z,33.00
2018-12-03T05:37:36.992Z,34.97
2018-12-03T05:40:10.333Z,29.23
2018-12-03T05:42:38.768Z,22.33
2018-12-03T05:45:08.284Z,26.80
2018-12-03T05:47:36.702Z,28.30
2018-12-03T05:50:07.436Z,28.80
2018-12-03T05:52:35.776Z,34.80
2018-12-03T05:55:04.573Z,28.23
2018-12-03T05:57:32.959Z,24.07
2018-12-03T06:00:01.366Z,29.43
2018-12-03T06:02:29.837Z,36.27
2018-12-03T06:04:58.188Z,24.83
2018-12-03T06:07:26.607Z,24.37
2018-12-03T06:09:55.040Z,29.70
2018-12-03T06:12:23.449Z,30.87
2018-12-03T06:14:51.795Z,26.90
2018-12-03T06:17:21.356Z,28.67
2018-12-03T06:19:48.665Z,26.53
2018-12-03T06:22:17.059Z,25.70
2018-12-03T06:24:45.429Z,49.73
2018-12-03T06:27:13.800Z,30.17
2018-12-03T06:29:42.143Z,27.23
2018-12-03T06:32:10.593Z,29.13
2018-12-03T06:34:38.952Z,36.37
2018-12-03T06:37:07.367Z,28.90
2018-12-03T06:39:35.818Z,30.20
2018-12-03T06:42:04.228Z,31.20
2018-12-03T06:44:32.711Z,33.37
2018-12-03T06:47:01.168Z,32.57
2018-12-03T06:49:29.524Z,31.67
2018-12-03T06:51:57.933Z,39.03
2018-12-03T06:54:26.284Z,30.17
2018-12-03T06:56:54.656Z,36.10
2018-12-03T06:59:23.091Z,36.30
2018-12-03T07:01:51.551Z,30.23
2018-12-03T07:04:19.904Z,38.40
2018-12-03T07:06:48.288Z,33.00
2018-12-03T07:09:16.663Z,27.67
2018-12-03T07:11:45.040Z,28.47
2018-12-03T07:14:13.431Z,36.80
2018-12-03T07:16:41.825Z,30.80
2018-12-03T07:19:10.181Z,34.30
2018-12-03T07:21:38.613Z,29.30
2018-12-03T07:24:07.053Z,36.83
2018-12-03T07:26:35.402Z,28.83
2018-12-03T07:29:03.828Z,32.10
2018-12-03T07:31:32.289Z,32.60
2018-12-03T07:34:03.389Z,25.30
2018-12-03T07:36:29.556Z,25.30
2018-12-03T07:38:58.809Z,31.83
2018-12-03T07:41:27.184Z,27.83
2018-12-03T07:43:55.564Z,26.33
2018-12-03T07:46:23.918Z,23.37
2018-12-03T07:48:52.296Z,25.23
2018-12-03T07:51:20.648Z,22.43
2018-12-03T07:53:49.061Z,23.07
2018-12-03T07:56:17.421Z,26.33
2018-12-03T07:58:45.798Z,31.90
2018-12-03T08:01:14.157Z,26.37
2018-12-03T08:03:42.529Z,25.33
2018-12-03T08:06:10.884Z,20.13
2018-12-03T08:08:39.335Z,22.87
2018-12-03T08:11:07.692Z,26.40
2018-12-03T08:13:36.097Z,30.47
2018-12-03T08:16:04.556Z,28.93
2018-12-03T08:18:32.957Z,23.73
2018-12-03T08:21:06.588Z,24.67
2018-12-03T08:23:44.492Z,29.73
2018-12-03T08:26:13.115Z,25.17
2018-12-03T08:28:41.514Z,25.97
2018-12-03T08:31:09.987Z,24.77
2018-12-03T08:33:38.385Z,29.10
2018-12-03T08:36:07.985Z,31.67
2018-12-03T08:38:36.713Z,25.83
2018-12-03T08:41:06.773Z,29.43
2018-12-03T08:43:35.299Z,28.57
2018-12-03T08:46:05.065Z,22.47
2018-12-03T08:48:36.160Z,16.57
2018-12-03T08:51:04.609Z,25.23
2018-12-03T08:53:33.029Z,16.07
2018-12-03T08:56:01.491Z,23.70
2018-12-03T08:58:29.858Z,15.13
2018-12-03T09:00:58.253Z,20.30
2018-12-03T09:03:28.346Z,19.53
2018-12-03T09:05:57.048Z,14.23
2018-12-03T09:08:25.455Z,21.00
2018-12-03T09:10:54.329Z,12.80
2018-12-03T09:13:23.928Z,13.07
2018-12-03T09:15:56.411Z,16.93
2018-12-03T09:18:29.840Z,11.00
2018-12-03T09:20:59.203Z,16.53
2018-12-03T09:23:27.573Z,11.90
2018-12-03T09:25:56.083Z,15.67
2018-12-03T09:28:24.433Z,12.63
2018-12-03T09:30:52.954Z,9.73
2018-12-03T09:33:21.340Z,14.30
2018-12-03T09:35:49.726Z,10.43
2018-12-03T09:38:18.152Z,14.03
2018-12-03T09:40:46.558Z,12.60
2018-12-03T09:43:15.017Z,18.43
2018-12-03T09:45:43.408Z,12.93
2018-12-03T09:48:11.773Z,11.60
2018-12-03T09:50:40.181Z,17.80
2018-12-03T09:53:08.632Z,15.87
2018-12-03T09:55:37.037Z,16.30
2018-12-03T09:58:10.621Z,18.80
2018-12-03T10:00:39.024Z,14.97
2018-12-03T10:03:17.752Z,13.53
2018-12-03T10:05:54.780Z,15.90
2018-12-03T10:08:25.557Z,16.93
2018-12-03T10:10:56.268Z,18.27
2018-12-03T10:13:24.852Z,25.40
2018-12-03T10:15:53.281Z,16.17
2018-12-03T10:18:21.712Z,19.00
2018-12-03T10:20:51.872Z,13.67
2018-12-03T10:23:20.429Z,13.90
2018-12-03T10:25:50.664Z,11.50
2018-12-03T10:28:19.341Z,13.77
2018-12-03T10:30:47.962Z,8.00
2018-12-03T10:33:20.191Z,9.40
2018-12-03T10:35:49.097Z,14.13
2018-12-03T10:38:22.470Z,8.03
2018-12-03T10:40:54.269Z,6.13
2018-12-03T10:43:22.613Z,6.20
2018-12-03T10:45:51.039Z,5.60
2018-12-03T10:48:19.429Z,5.77
2018-12-03T10:50:47.878Z,6.20
2018-12-03T10:53:16.229Z,6.67
2018-12-03T10:55:44.825Z,6.87
2018-12-03T10:58:45.827Z,5.40
2018-12-03T11:01:19.149Z,6.00
2018-12-03T11:03:52.320Z,4.93
2018-12-03T11:06:20.080Z,5.00
2018-12-03T11:08:47.834Z,7.23
2018-12-03T11:11:15.601Z,7.60
2018-12-03T11:13:43.233Z,5.63
2018-12-03T11:16:10.934Z,8.37
2018-12-03T11:18:38.797Z,5.37
2018-12-03T11:21:06.446Z,6.93
2018-12-03T11:23:34.526Z,6.00
2018-12-03T11:26:02.505Z,7.20
2018-12-03T11:28:32.625Z,10.23
2018-12-03T11:31:00.291Z,10.27
2018-12-03T11:33:27.954Z,13.70
2018-12-03T11:35:55.610Z,8.30
2018-12-03T11:38:23.374Z,5.63
2018-12-03T11:40:51.042Z,9.03
2018-12-03T11:43:18.706Z,14.23
2018-12-03T11:45:46.365Z,12.83
2018-12-03T11:48:14.133Z,8.37
2018-12-03T11:50:41.790Z,9.43
2018-12-03T11:53:09.440Z,10.27
2018-12-03T11:55:37.176Z,14.63
2018-12-03T11:58:05.295Z,7.10
2018-12-03T12:00:32.952Z,7.00
2018-12-03T12:03:00.616Z,9.57
2018-12-03T12:05:28.196Z,5.70
2018-12-03T12:07:55.933Z,6.40
2018-12-03T12:10:23.604Z,5.83
2018-12-03T12:12:51.275Z,10.63
2018-12-03T12:15:18.935Z,8.20
2018-12-03T12:17:46.540Z,6.80
2018-12-03T12:20:14.257Z,16.00
2018-12-03T12:22:41.925Z,16.50
2018-12-03T12:25:09.594Z,8.63
2018-12-03T12:27:37.240Z,12.27
2018-12-03T12:30:08.276Z,8.30
2018-12-03T12:32:35.952Z,13.07
2018-12-03T12:35:03.920Z,16.60
2018-12-03T12:37:31.581Z,5.97
2018-12-03T12:39:59.245Z,3.80
2018-12-03T12:42:31.673Z,11.93
2018-12-03T12:44:56.621Z,5.50
2018-12-03T12:47:24.281Z,8.53
2018-12-03T12:49:51.941Z,7.03
2018-12-03T12:52:19.613Z,4.90
2018-12-03T12:54:47.257Z,5.80
2018-12-03T12:57:14.845Z,6.30
2018-12-03T12:59:42.493Z,9.50
2018-12-03T13:02:10.132Z,8.73
2018-12-03T13:04:37.746Z,13.80
2018-12-03T13:07:05.377Z,7.80
2018-12-03T13:09:33.249Z,14.43
2018-12-03T13:12:01.000Z,13.83
2018-12-03T13:14:28.609Z,13.50
2018-12-03T13:16:56.232Z,11.17
2018-12-03T13:19:23.845Z,12.60
2018-12-03T13:21:51.463Z,11.57
2018-12-03T13:24:19.188Z,14.20
2018-12-03T13:26:46.883Z,10.50
2018-12-03T13:29:14.553Z,19.80
2018-12-03T13:31:42.305Z,13.80
2018-12-03T13:34:10.086Z,7.57
2018-12-03T13:36:37.737Z,12.87
2018-12-03T13:39:06.732Z,8.57
2018-12-03T13:41:34.489Z,9.80
2018-12-03T13:44:02.248Z,7.40
2018-12-03T13:46:29.858Z,10.60
2018-12-03T13:48:57.493Z,4.10
2018-12-03T13:51:25.104Z,19.40
2018-12-03T13:53:52.812Z,9.77
2018-12-03T13:56:20.484Z,13.20
2018-12-03T13:58:48.077Z,22.53
2018-12-03T14:01:15.690Z,31.30
2018-12-03T14:03:43.360Z,12.70
2018-12-03T14:06:11.025Z,22.60
2018-12-03T14:08:38.785Z,25.40
2018-12-03T14:11:08.280Z,19.50
2018-12-03T14:13:36.168Z,18.87
2018-12-03T14:16:05.564Z,13.63
2018-12-03T14:18:33.289Z,19.30
2018-12-03T14:21:01.001Z,20.57
2018-12-03T14:23:28.769Z,25.10
2018-12-03T14:25:56.421Z,14.70
2018-12-03T14:28:24.083Z,20.50
2018-12-03T14:30:51.738Z,11.73
2018-12-03T14:33:19.420Z,15.90
2018-12-03T14:35:47.030Z,22.13
2018-12-03T14:38:15.517Z,17.10
2018-12-03T14:40:43.128Z,16.60
2018-12-03T14:43:10.785Z,30.43
2018-12-03T14:45:38.550Z,18.17
2018-12-03T14:48:06.299Z,21.53
2018-12-03T14:50:33.973Z,14.60
2018-12-03T14:53:07.617Z,15.03
2018-12-03T14:55:31.249Z,14.00
2018-12-03T14:57:58.904Z,9.53
2018-12-03T15:00:26.533Z,22.80
2018-12-03T15:02:54.237Z,13.60
2018-12-03T15:05:21.883Z,18.53
2018-12-03T15:07:49.561Z,16.80
2018-12-03T15:10:17.154Z,14.50
2018-12-03T15:12:44.780Z,11.90
2018-12-03T15:15:12.440Z,22.10
2018-12-03T15:17:40.116Z,18.10
2018-12-03T15:20:08.081Z,15.13
2018-12-03T15:22:35.736Z,19.00
2018-12-03T15:25:03.607Z,17.67
2018-12-03T15:27:31.269Z,14.20
2018-12-03T15:29:58.941Z,16.33
2018-12-03T15:32:26.544Z,17.40
2018-12-03T15:34:54.161Z,25.80
2018-12-03T15:37:21.815Z,11.37
2018-12-03T15:39:49.492Z,17.50
2018-12-03T15:42:17.145Z,13.30
2018-12-03T15:44:44.899Z,16.63
2018-12-03T15:47:12.567Z,17.67
2018-12-03T15:49:40.242Z,18.83
2018-12-03T15:52:07.852Z,36.97
2018-12-03T15:54:35.464Z,24.67
2018-12-03T15:57:03.088Z,18.73
2018-12-03T15:59:30.792Z,16.77
2018-12-03T16:01:58.444Z,12.73
2018-12-03T16:04:26.138Z,15.83
2018-12-03T16:06:53.816Z,16.57
2018-12-03T16:09:21.565Z,17.57
2018-12-03T16:11:49.204Z,15.90
2018-12-03T16:14:16.869Z,21.43
2018-12-03T16:16:44.529Z,19.87
2018-12-03T16:19:12.196Z,27.67
2018-12-03T16:21:39.779Z,23.30
2018-12-03T16:24:07.424Z,18.80
2018-12-03T16:26:35.077Z,29.50
2018-12-03T16:29:02.731Z,22.97
2018-12-03T16:31:30.404Z,13.97
2018-12-03T16:33:58.070Z,18.70
2018-12-03T16:36:25.705Z,14.77
2018-12-03T16:38:53.479Z,22.83
2018-12-03T16:41:21.157Z,30.23
2018-12-03T16:43:48.769Z,21.10
2018-12-03T16:46:16.377Z,29.47
2018-12-03T16:48:44.045Z,21.33
2018-12-03T16:51:11.700Z,24.17
2018-12-03T16:53:39.364Z,22.63
2018-12-03T16:56:07.027Z,28.13
2018-12-03T16:58:34.713Z,27.83
2018-12-03T17:01:02.302Z,23.03
2018-12-03T17:03:30.025Z,17.90
2018-12-03T17:05:57.681Z,28.33
2018-12-03T17:08:25.341Z,16.80
2018-12-03T17:10:53.004Z,14.10
2018-12-03T17:13:20.664Z,25.00
2018-12-03T17:15:48.268Z,28.60
2018-12-03T17:18:15.895Z,27.10
2018-12-03T17:20:43.969Z,33.40
2018-12-03T17:23:12.412Z,16.70
2018-12-03T17:25:40.020Z,17.60
2018-12-03T17:28:07.760Z,26.43
2018-12-03T17:30:35.437Z,21.73
2018-12-03T17:33:03.033Z,26.70
2018-12-03T17:35:30.650Z,22.33
2018-12-03T17:37:58.316Z,26.47
2018-12-03T17:40:25.928Z,17.37
2018-12-03T17:42:53.567Z,19.60
2018-12-03T17:45:21.222Z,15.50
2018-12-03T17:47:48.877Z,93.23
2018-12-03T17:50:17.251Z,25.50
2018-12-03T17:52:44.837Z,28.10
2018-12-03T17:55:12.581Z,19.33
2018-12-03T17:57:40.755Z,20.17
2018-12-03T18:00:09.453Z,19.23
2018-12-03T18:02:37.113Z,19.00
2018-12-03T18:05:04.870Z,21.43
2018-12-03T18:07:32.529Z,17.73
2018-12-03T18:10:00.190Z,22.83
2018-12-03T18:12:28.265Z,23.23
2018-12-03T18:14:55.946Z,20.83
2018-12-03T18:17:23.583Z,22.50
2018-12-03T18:19:51.357Z,18.40
2018-12-03T18:22:19.012Z,34.03
2018-12-03T18:24:46.672Z,18.40
2018-12-03T18:27:14.336Z,22.47
2018-12-03T18:29:42.213Z,25.40
2018-12-03T18:32:09.865Z,12.13
2018-12-03T18:34:37.456Z,17.83
2018-12-03T18:37:05.118Z,27.60
2018-12-03T18:39:32.756Z,21.53
2018-12-03T18:42:00.361Z,21.50
2018-12-03T18:44:27.986Z,29.30
2018-12-03T18:46:55.640Z,27.93
2018-12-03T18:49:23.269Z,21.83
2018-12-03T18:51:50.921Z,30.27
2018-12-03T18:54:18.533Z,18.27
2018-12-03T18:56:46.196Z,22.97
2018-12-03T18:59:13.832Z,25.77
2018-12-03T19:01:41.438Z,17.43
2018-12-03T19:04:09.067Z,22.00
2018-12-03T19:06:36.849Z,26.50
2018-12-03T19:09:06.456Z,31.10
2018-12-03T19:11:34.229Z,18.30
2018-12-03T19:14:01.821Z,26.93
2018-12-03T19:16:29.540Z,23.70
2018-12-03T19:18:57.178Z,15.90
2018-12-03T19:21:24.874Z,19.47
2018-12-03T19:23:52.537Z,25.37
2018-12-03T19:26:20.198Z,19.20
2018-12-03T19:28:47.861Z,23.03
2018-12-03T19:31:15.521Z,36.90
2018-12-03T19:33:43.289Z,23.83
2018-12-03T19:36:10.944Z,17.30
2018-12-03T19:38:38.548Z,39.30
2018-12-03T19:41:06.268Z,25.57
2018-12-03T19:43:33.932Z,28.37
2018-12-03T19:46:01.594Z,25.63
2018-12-03T19:48:29.205Z,25.83
2018-12-03T19:50:56.832Z,29.20
2018-12-03T19:53:24.458Z,23.37
2018-12-03T19:55:52.249Z,26.37
2018-12-03T19:58:19.909Z,36.07
2018-12-03T20:00:47.572Z,40.13
2018-12-03T20:03:15.241Z,39.50
2018-12-03T20:05:42.905Z,23.03
2018-12-03T20:08:10.561Z,22.13
2018-12-03T20:10:38.145Z,19.67
2018-12-03T20:13:05.793Z,27.23
2018-12-03T20:15:33.502Z,25.20
2018-12-03T20:18:01.108Z,27.30
2018-12-03T20:20:29.085Z,19.97
2018-12-03T20:22:56.745Z,25.83
2018-12-03T20:25:24.601Z,24.83
2018-12-03T20:27:52.309Z,23.83
2018-12-03T20:30:23.828Z,29.60
2018-12-03T20:32:51.572Z,27.77
2018-12-03T20:35:19.361Z,19.37
2018-12-03T20:37:47.119Z,23.63
2018-12-03T20:40:16.526Z,37.30
2018-12-03T20:42:44.701Z,24.50
2018-12-03T20:45:18.113Z,15.70
2018-12-03T20:47:47.091Z,24.20
2018-12-03T20:50:16.500Z,24.57
2018-12-03T20:52:47.248Z,29.37
2018-12-03T20:55:15.616Z,31.33
2018-12-03T20:57:43.219Z,24.43
2018-12-03T21:00:11.215Z,34.70
2018-12-03T21:02:38.911Z,29.23
2018-12-03T21:05:06.572Z,31.37
2018-12-03T21:07:34.232Z,26.33
2018-12-03T21:10:01.905Z,26.33
2018-12-03T21:12:29.496Z,39.10
2018-12-03T21:14:57.225Z,41.13
2018-12-03T21:17:24.874Z,36.80
2018-12-03T21:19:53.124Z,40.23
2018-12-03T21:22:20.709Z,32.27
2018-12-03T21:24:48.384Z,27.23
2018-12-03T21:27:16.049Z,21.53
2018-12-03T21:29:43.713Z,26.10
2018-12-03T21:32:11.482Z,23.80
2018-12-03T21:34:39.135Z,27.40
2018-12-03T21:37:06.791Z,24.07
2018-12-03T21:39:34.474Z,23.73
2018-12-03T21:42:02.115Z,22.53
2018-12-03T21:44:29.707Z,27.53
2018-12-03T21:46:57.357Z,20.23
2018-12-03T21:49:25.014Z,40.97
2018-12-03T21:51:52.684Z,34.50
2018-12-03T21:54:20.267Z,41.17
2018-12-03T21:56:47.896Z,34.97
2018-12-03T21:59:15.560Z,39.90
2018-12-03T22:01:43.224Z,21.83
2018-12-03T22:04:10.889Z,28.20
2018-12-03T22:06:38.552Z,30.63
2018-12-03T22:09:06.628Z,32.57
2018-12-03T22:11:34.281Z,28.67
2018-12-03T22:14:02.199Z,25.37
2018-12-03T22:16:29.924Z,23.77
2018-12-03T22:18:57.576Z,34.67
2018-12-03T22:21:25.240Z,26.83
2018-12-03T22:23:52.904Z,36.73
2018-12-03T22:26:20.573Z,26.93
2018-12-03T22:28:48.157Z,32.47
2018-12-03T22:31:15.892Z,41.07
2018-12-03T22:33:43.566Z,19.93
2018-12-03T22:36:11.221Z,29.33
2018-12-03T22:38:38.837Z,34.43
2018-12-03T22:41:06.440Z,21.87
2018-12-03T22:43:34.044Z,25.50
2018-12-03T22:46:01.881Z,30.97
2018-12-03T22:48:29.536Z,35.70
2018-12-03T22:50:57.196Z,36.00
2018-12-03T22:53:24.855Z,42.23
2018-12-03T22:55:52.481Z,33.47
2018-12-03T22:58:20.089Z,35.90
2018-12-03T23:00:49.801Z,53.67
2018-12-03T23:03:17.408Z,31.47
2018-12-03T23:05:45.037Z,31.47
2018-12-03T23:08:12.676Z,42.40
2018-12-03T23:10:40.340Z,30.60
2018-12-03T23:13:08.016Z,29.87
2018-12-03T23:15:35.666Z,38.47
2018-12-03T23:18:04.053Z,32.73
2018-12-03T23:20:31.710Z,33.60
2018-12-03T23:22:59.369Z,48.20
2018-12-03T23:25:27.041Z,35.40
2018-12-03T23:27:54.695Z,28.87
2018-12-03T23:30:22.364Z,31.37
2018-12-03T23:32:50.034Z,26.80
2018-12-03T23:35:17.689Z,27.63
2018-12-03T23:37:45.353Z,39.53
2018-12-03T23:40:13.020Z,22.00
2018-12-03T23:42:40.672Z,26.70
2018-12-03T23:45:08.341Z,49.07
2018-12-03T23:47:36.000Z,22.10
2018-12-03T23:50:03.770Z,30.00
2018-12-03T23:52:31.432Z,27.97
2018-12-03T23:54:59.092Z,35.00
2018-12-03T23:57:26.683Z,28.73
2018-12-03T23:59:54.316Z,38.60
